sensor_id;sensor_type;location;lat;lon;timestamp;pressure;altitude;pressure_sealevel;temperature;humidity
74573;BME280;63071;51.526;-0.134;2023-02-28T00:00:22;102826.72;;;22.03;24.34
74573;BME280;63071;51.526;-0.134;2023-02-28T00:02:47;102845.06;;;22.13;24.93
74573;BME280;63071;51.526;-0.134;2023-02-28T00:05:16;102843.81;;;22.10;24.91
74573;BME280;63071;51.526;-0.134;2023-02-28T00:07:42;102842.22;;;22.09;24.98
74573;BME280;63071;51.526;-0.134;2023-02-28T00:10:11;102842.06;;;22.06;24.82
74573;BME280;63071;51.526;-0.134;2023-02-28T00:12:37;102840.97;;;22.07;24.93
74573;BME280;63071;51.526;-0.134;2023-02-28T00:15:10;102851.63;;;22.07;24.88
74573;BME280;63071;51.526;-0.134;2023-02-28T00:17:37;102854.28;;;22.07;24.59
74573;BME280;63071;51.526;-0.134;2023-02-28T00:20:05;102843.16;;;22.05;24.85
74573;BME280;63071;51.526;-0.134;2023-02-28T00:22:36;102837.66;;;22.01;24.59
74573;BME280;63071;51.526;-0.134;2023-02-28T00:25:03;102833.94;;;22.02;24.31
74573;BME280;63071;51.526;-0.134;2023-02-28T00:27:29;102839.72;;;22.04;24.57
74573;BME280;63071;51.526;-0.134;2023-02-28T00:29:54;102838.91;;;22.04;24.72
74573;BME280;63071;51.526;-0.134;2023-02-28T00:32:20;102838.91;;;22.04;24.40
74573;BME280;63071;51.526;-0.134;2023-02-28T00:34:45;102841.09;;;22.01;24.46
74573;BME280;63071;51.526;-0.134;2023-02-28T00:37:11;102838.16;;;22.03;24.81
74573;BME280;63071;51.526;-0.134;2023-02-28T00:39:40;102836.59;;;22.02;24.67
74573;BME280;63071;51.526;-0.134;2023-02-28T00:42:07;102836.41;;;21.98;24.54
74573;BME280;63071;51.526;-0.134;2023-02-28T00:44:33;102840.34;;;22.01;24.21
74573;BME280;63071;51.526;-0.134;2023-02-28T00:46:59;102833.44;;;22.00;24.75
74573;BME280;63071;51.526;-0.134;2023-02-28T00:49:26;102833.75;;;21.98;24.74
74573;BME280;63071;51.526;-0.134;2023-02-28T00:51:53;102836.41;;;21.98;24.49
74573;BME280;63071;51.526;-0.134;2023-02-28T00:54:20;102834.84;;;21.97;24.92
74573;BME280;63071;51.526;-0.134;2023-02-28T00:56:46;102837.84;;;21.96;24.78
74573;BME280;63071;51.526;-0.134;2023-02-28T00:59:12;102844.72;;;21.97;24.61
74573;BME280;63071;51.526;-0.134;2023-02-28T01:01:38;102840.97;;;21.98;24.88
74573;BME280;63071;51.526;-0.134;2023-02-28T01:04:03;102843.16;;;21.96;24.45
74573;BME280;63071;51.526;-0.134;2023-02-28T01:06:30;102850.81;;;21.97;24.50
74573;BME280;63071;51.526;-0.134;2023-02-28T01:08:55;102846.13;;;21.94;24.76
74573;BME280;63071;51.526;-0.134;2023-02-28T01:11:20;102837.03;;;21.95;24.61
74573;BME280;63071;51.526;-0.134;2023-02-28T01:13:46;102840.16;;;21.97;24.50
74573;BME280;63071;51.526;-0.134;2023-02-28T01:16:12;102847.38;;;21.97;25.26
74573;BME280;63071;51.526;-0.134;2023-02-28T01:18:39;102837.03;;;21.95;25.03
74573;BME280;63071;51.526;-0.134;2023-02-28T01:21:06;102847.38;;;21.97;24.59
74573;BME280;63071;51.526;-0.134;2023-02-28T01:23:33;102846.59;;;21.96;25.16
74573;BME280;63071;51.526;-0.134;2023-02-28T01:26:16;102854.59;;;21.96;24.31
74573;BME280;63071;51.526;-0.134;2023-02-28T01:28:42;102853.00;;;21.95;24.58
74573;BME280;63071;51.526;-0.134;2023-02-28T01:31:09;102849.56;;;21.95;24.76
74573;BME280;63071;51.526;-0.134;2023-02-28T01:33:35;102854.09;;;21.94;25.16
74573;BME280;63071;51.526;-0.134;2023-02-28T01:36:13;102856.78;;;21.94;25.17
74573;BME280;63071;51.526;-0.134;2023-02-28T01:38:39;102845.34;;;21.94;24.92
74573;BME280;63071;51.526;-0.134;2023-02-28T01:41:05;102856.00;;;21.94;24.98
74573;BME280;63071;51.526;-0.134;2023-02-28T01:46:08;102851.75;;;21.93;24.75
74573;BME280;63071;51.526;-0.134;2023-02-28T01:48:38;102847.06;;;21.90;24.67
74573;BME280;63071;51.526;-0.134;2023-02-28T01:51:14;102846.44;;;21.93;24.64
74573;BME280;63071;51.526;-0.134;2023-02-28T01:53:50;102850.19;;;21.92;24.66
74573;BME280;63071;51.526;-0.134;2023-02-28T01:56:20;102852.84;;;21.92;25.09
74573;BME280;63071;51.526;-0.134;2023-02-28T01:58:49;102848.91;;;21.89;24.97
74573;BME280;63071;51.526;-0.134;2023-02-28T02:01:16;102848.63;;;21.91;24.90
74573;BME280;63071;51.526;-0.134;2023-02-28T02:03:59;102853.00;;;21.95;24.47
74573;BME280;63071;51.526;-0.134;2023-02-28T02:06:30;102854.41;;;21.93;24.71
74573;BME280;63071;51.526;-0.134;2023-02-28T02:08:59;102849.38;;;21.91;24.78
74573;BME280;63071;51.526;-0.134;2023-02-28T02:11:25;102860.03;;;21.91;25.18
74573;BME280;63071;51.526;-0.134;2023-02-28T02:15:06;102851.28;;;21.91;25.33
74573;BME280;63071;51.526;-0.134;2023-02-28T02:17:25;102861.94;;;21.91;24.47
74573;BME280;63071;51.526;-0.134;2023-02-28T02:28:20;102854.25;;;21.89;24.87
74573;BME280;63071;51.526;-0.134;2023-02-28T02:36:18;102862.22;;;21.89;25.18
74573;BME280;63071;51.526;-0.134;2023-02-28T02:39:43;102855.66;;;21.87;24.63
74573;BME280;63071;51.526;-0.134;2023-02-28T02:41:51;102857.53;;;21.86;25.29
74573;BME280;63071;51.526;-0.134;2023-02-28T02:44:25;102865.19;;;21.88;25.32
74573;BME280;63071;51.526;-0.134;2023-02-28T02:46:58;102851.09;;;21.87;24.70
74573;BME280;63071;51.526;-0.134;2023-02-28T02:49:36;102860.97;;;21.87;25.08
74573;BME280;63071;51.526;-0.134;2023-02-28T02:52:09;102855.66;;;21.87;24.82
74573;BME280;63071;51.526;-0.134;2023-02-28T02:54:40;102849.84;;;21.85;24.85
74573;BME280;63071;51.526;-0.134;2023-02-28T02:57:14;102854.06;;;21.86;25.11
74573;BME280;63071;51.526;-0.134;2023-02-28T02:59:43;102853.28;;;21.85;24.60
74573;BME280;63071;51.526;-0.134;2023-02-28T03:02:13;102847.19;;;21.85;24.54
74573;BME280;63071;51.526;-0.134;2023-02-28T03:04:48;102846.88;;;21.86;24.80
74573;BME280;63071;51.526;-0.134;2023-02-28T03:07:15;102846.88;;;21.86;24.78
74573;BME280;63071;51.526;-0.134;2023-02-28T03:09:52;102840.75;;;21.86;25.20
74573;BME280;63071;51.526;-0.134;2023-02-28T03:12:20;102839.69;;;21.87;24.84
74573;BME280;63071;51.526;-0.134;2023-02-28T03:17:43;102848.75;;;21.86;24.58
74573;BME280;63071;51.526;-0.134;2023-02-28T03:23:03;102839.50;;;21.83;24.65
74573;BME280;63071;51.526;-0.134;2023-02-28T03:26:04;102846.72;;;21.83;24.99
74573;BME280;63071;51.526;-0.134;2023-02-28T03:31:26;102840.28;;;21.75;24.61
74573;BME280;63071;51.526;-0.134;2023-02-28T03:34:23;102845.13;;;21.81;24.78
74573;BME280;63071;51.526;-0.134;2023-02-28T03:36:55;102854.69;;;21.83;25.29
74573;BME280;63071;51.526;-0.134;2023-02-28T03:39:34;102855.00;;;21.81;24.91
74573;BME280;63071;51.526;-0.134;2023-02-28T03:42:09;102853.94;;;21.82;25.09
74573;BME280;63071;51.526;-0.134;2023-02-28T03:44:42;102861.56;;;21.84;24.59
74573;BME280;63071;51.526;-0.134;2023-02-28T03:47:17;102866.44;;;21.81;24.94
74573;BME280;63071;51.526;-0.134;2023-02-28T03:52:27;102864.56;;;21.82;24.71
74573;BME280;63071;51.526;-0.134;2023-02-28T03:54:59;102870.69;;;21.83;24.80
74573;BME280;63071;51.526;-0.134;2023-02-28T03:57:39;102869.09;;;21.81;25.40
74573;BME280;63071;51.526;-0.134;2023-02-28T04:02:37;102863.50;;;21.92;24.76
74573;BME280;63071;51.526;-0.134;2023-02-28T04:05:02;102861.56;;;21.84;24.96
74573;BME280;63071;51.526;-0.134;2023-02-28T04:07:31;102858.44;;;21.81;24.69
74573;BME280;63071;51.526;-0.134;2023-02-28T04:09:58;102866.44;;;21.81;24.93
74573;BME280;63071;51.526;-0.134;2023-02-28T04:12:24;102863.28;;;21.79;24.91
74573;BME280;63071;51.526;-0.134;2023-02-28T04:14:50;102866.75;;;21.80;25.19
74573;BME280;63071;51.526;-0.134;2023-02-28T04:17:16;102863.28;;;21.79;25.43
74573;BME280;63071;51.526;-0.134;2023-02-28T04:19:42;102865.19;;;21.79;25.22
74573;BME280;63071;51.526;-0.134;2023-02-28T04:22:08;102869.72;;;21.78;25.36
74573;BME280;63071;51.526;-0.134;2023-02-28T04:24:35;102867.06;;;21.78;25.34
74573;BME280;63071;51.526;-0.134;2023-02-28T04:27:01;102868.94;;;21.78;25.26
74573;BME280;63071;51.526;-0.134;2023-02-28T04:29:31;102870.50;;;21.79;24.78
74573;BME280;63071;51.526;-0.134;2023-02-28T04:31:59;102869.72;;;21.78;25.20
74573;BME280;63071;51.526;-0.134;2023-02-28T04:34:26;102872.38;;;21.78;24.77
74573;BME280;63071;51.526;-0.134;2023-02-28T04:36:52;102862.50;;;21.79;25.11
74573;BME280;63071;51.526;-0.134;2023-02-28T04:39:20;102872.38;;;21.78;24.81
74573;BME280;63071;51.526;-0.134;2023-02-28T04:41:47;102874.28;;;21.78;25.23
74573;BME280;63071;51.526;-0.134;2023-02-28T04:44:13;102876.13;;;21.77;24.75
74573;BME280;63071;51.526;-0.134;2023-02-28T04:46:38;102871.91;;;21.76;25.13
74573;BME280;63071;51.526;-0.134;2023-02-28T04:49:04;102878.78;;;21.77;24.82
74573;BME280;63071;51.526;-0.134;2023-02-28T04:51:29;102885.22;;;21.76;24.93
74573;BME280;63071;51.526;-0.134;2023-02-28T04:53:55;102880.66;;;21.77;25.12
74573;BME280;63071;51.526;-0.134;2023-02-28T04:56:21;102876.47;;;21.76;25.25
74573;BME280;63071;51.526;-0.134;2023-02-28T04:58:47;102874.09;;;21.74;25.45
74573;BME280;63071;51.526;-0.134;2023-02-28T05:03:44;102871.91;;;21.76;24.75
74573;BME280;63071;51.526;-0.134;2023-02-28T05:06:11;102872.69;;;21.77;24.92
74573;BME280;63071;51.526;-0.134;2023-02-28T05:08:37;102884.13;;;21.77;25.17
74573;BME280;63071;51.526;-0.134;2023-02-28T05:11:08;102883.34;;;21.77;24.66
74573;BME280;63071;51.526;-0.134;2023-02-28T05:13:37;102886.28;;;21.75;25.40
74573;BME280;63071;51.526;-0.134;2023-02-28T05:16:03;102887.88;;;21.76;25.12
74573;BME280;63071;51.526;-0.134;2023-02-28T05:18:28;102886.28;;;21.75;25.50
74573;BME280;63071;51.526;-0.134;2023-02-28T05:20:54;102885.22;;;21.76;24.67
74573;BME280;63071;51.526;-0.134;2023-02-28T05:23:22;102887.41;;;21.74;25.19
74573;BME280;63071;51.526;-0.134;2023-02-28T05:25:48;102880.97;;;21.75;24.73
74573;BME280;63071;51.526;-0.134;2023-02-28T05:28:14;102891.63;;;21.75;25.02
74573;BME280;63071;51.526;-0.134;2023-02-28T05:30:39;102892.44;;;21.76;25.54
74573;BME280;63071;51.526;-0.134;2023-02-28T05:33:05;102891.63;;;21.75;24.73
74573;BME280;63071;51.526;-0.134;2023-02-28T05:35:30;102892.44;;;21.76;24.71
74573;BME280;63071;51.526;-0.134;2023-02-28T05:37:56;102902.25;;;21.75;25.37
74573;BME280;63071;51.526;-0.134;2023-02-28T05:40:21;102895.38;;;21.74;25.49
74573;BME280;63071;51.526;-0.134;2023-02-28T05:42:47;102895.38;;;21.74;25.44
74573;BME280;63071;51.526;-0.134;2023-02-28T05:45:12;102891.13;;;21.73;25.46
74573;BME280;63071;51.526;-0.134;2023-02-28T05:47:38;102903.38;;;21.74;24.91
74573;BME280;63071;51.526;-0.134;2023-02-28T05:50:05;102893.03;;;21.73;25.51
74573;BME280;63071;51.526;-0.134;2023-02-28T05:52:30;102898.06;;;21.74;24.96
74573;BME280;63071;51.526;-0.134;2023-02-28T05:54:56;102906.34;;;21.73;25.09
74573;BME280;63071;51.526;-0.134;2023-02-28T05:57:22;102911.66;;;21.73;24.78
74573;BME280;63071;51.526;-0.134;2023-02-28T05:59:48;102906.63;;;21.71;25.19
74573;BME280;63071;51.526;-0.134;2023-02-28T06:02:15;102915.09;;;21.73;25.45
74573;BME280;63071;51.526;-0.134;2023-02-28T06:04:42;102908.06;;;21.77;25.44
74573;BME280;63071;51.526;-0.134;2023-02-28T06:07:08;102910.25;;;21.75;25.04
74573;BME280;63071;51.526;-0.134;2023-02-28T06:09:34;102913.25;;;21.74;25.22
74573;BME280;63071;51.526;-0.134;2023-02-28T06:12:00;102909.47;;;21.75;24.89
74573;BME280;63071;51.526;-0.134;2023-02-28T06:14:29;102913.25;;;21.74;25.87
74573;BME280;63071;51.526;-0.134;2023-02-28T06:16:56;102903.66;;;21.73;25.54
74573;BME280;63071;51.526;-0.134;2023-02-28T06:19:22;102903.84;;;21.76;25.48
74573;BME280;63071;51.526;-0.134;2023-02-28T06:21:51;102918.88;;;21.81;24.92
74573;BME280;63071;51.526;-0.134;2023-02-28T06:24:19;102922.34;;;21.81;25.42
74573;BME280;63071;51.526;-0.134;2023-02-28T06:26:45;102920.28;;;21.78;25.52
74573;BME280;63071;51.526;-0.134;2023-02-28T06:29:10;102918.13;;;21.80;25.14
74573;BME280;63071;51.526;-0.134;2023-02-28T06:31:36;102917.81;;;21.82;25.27
74573;BME280;63071;51.526;-0.134;2023-02-28T06:34:02;102923.13;;;21.82;25.50
74573;BME280;63071;51.526;-0.134;2023-02-28T06:36:27;102916.72;;;21.83;24.85
74573;BME280;63071;51.526;-0.134;2023-02-28T06:38:53;102923.91;;;21.83;25.09
74573;BME280;63071;51.526;-0.134;2023-02-28T06:41:21;102912.97;;;21.84;25.61
74573;BME280;63071;51.526;-0.134;2023-02-28T06:43:47;102916.72;;;21.83;25.50
74573;BME280;63071;51.526;-0.134;2023-02-28T06:46:14;102915.28;;;21.86;25.01
74573;BME280;63071;51.526;-0.134;2023-02-28T06:48:40;102906.84;;;21.84;25.04
74573;BME280;63071;51.526;-0.134;2023-02-28T06:51:11;102908.41;;;21.85;24.90
74573;BME280;63071;51.526;-0.134;2023-02-28T06:53:38;102913.44;;;21.86;25.55
74573;BME280;63071;51.526;-0.134;2023-02-28T06:56:09;102914.69;;;21.89;24.86
74573;BME280;63071;51.526;-0.134;2023-02-28T06:58:35;102911.25;;;21.88;25.04
74573;BME280;63071;51.526;-0.134;2023-02-28T07:01:02;102913.13;;;21.88;25.35
74573;BME280;63071;51.526;-0.134;2023-02-28T07:03:28;102915.78;;;21.88;25.52
74573;BME280;63071;51.526;-0.134;2023-02-28T07:05:53;102913.13;;;21.88;25.06
74573;BME280;63071;51.526;-0.134;2023-02-28T07:08:22;102915.78;;;21.88;25.54
74573;BME280;63071;51.526;-0.134;2023-02-28T07:10:51;102916.59;;;21.88;25.44
74573;BME280;63071;51.526;-0.134;2023-02-28T07:13:17;102918.78;;;21.86;25.04
74573;BME280;63071;51.526;-0.134;2023-02-28T07:15:42;102914.81;;;21.84;25.24
74573;BME280;63071;51.526;-0.134;2023-02-28T07:18:08;102917.97;;;21.86;24.84
74573;BME280;63071;51.526;-0.134;2023-02-28T07:20:33;102923.63;;;21.84;25.13
74573;BME280;63071;51.526;-0.134;2023-02-28T07:22:59;102920.94;;;21.84;25.39
74573;BME280;63071;51.526;-0.134;2023-02-28T07:25:28;102920.16;;;21.84;25.53
74573;BME280;63071;51.526;-0.134;2023-02-28T07:27:55;102915.63;;;21.84;25.12
74573;BME280;63071;51.526;-0.134;2023-02-28T07:30:21;102928.13;;;21.84;25.49
74573;BME280;63071;51.526;-0.134;2023-02-28T07:32:47;102926.28;;;21.84;24.77
74573;BME280;63071;51.526;-0.134;2023-02-28T07:35:12;102924.69;;;21.83;24.91
74573;BME280;63071;51.526;-0.134;2023-02-28T07:37:41;102927.34;;;21.83;25.13
74573;BME280;63071;51.526;-0.134;2023-02-28T07:40:10;102919.38;;;21.83;25.12
74573;BME280;63071;51.526;-0.134;2023-02-28T07:42:40;102917.00;;;21.81;25.11
74573;BME280;63071;51.526;-0.134;2023-02-28T07:45:07;102925.47;;;21.84;24.98
74573;BME280;63071;51.526;-0.134;2023-02-28T07:47:33;102923.13;;;21.82;25.38
74573;BME280;63071;51.526;-0.134;2023-02-28T07:50:00;102918.59;;;21.83;24.96
74573;BME280;63071;51.526;-0.134;2023-02-28T07:52:25;102919.66;;;21.81;25.48
74573;BME280;63071;51.526;-0.134;2023-02-28T07:54:51;102925.00;;;21.81;24.93
74573;BME280;63071;51.526;-0.134;2023-02-28T07:57:17;102934.56;;;21.83;25.48
74573;BME280;63071;51.526;-0.134;2023-02-28T07:59:43;102939.88;;;21.83;25.30
74573;BME280;63071;51.526;-0.134;2023-02-28T08:02:18;102931.13;;;21.82;24.84
74573;BME280;63071;51.526;-0.134;2023-02-28T08:04:45;102933.34;;;21.89;25.52
74573;BME280;63071;51.526;-0.134;2023-02-28T08:07:13;102927.06;;;21.85;25.15
74573;BME280;63071;51.526;-0.134;2023-02-28T08:09:40;102931.44;;;21.80;25.51
74573;BME280;63071;51.526;-0.134;2023-02-28T08:12:06;102945.22;;;21.83;25.13
74573;BME280;63071;51.526;-0.134;2023-02-28T08:14:33;102935.63;;;21.81;25.00
74573;BME280;63071;51.526;-0.134;2023-02-28T08:16:58;102934.56;;;21.83;24.94
74573;BME280;63071;51.526;-0.134;2023-02-28T08:19:24;102939.88;;;21.83;25.65
74573;BME280;63071;51.526;-0.134;2023-02-28T08:21:49;102940.19;;;21.81;24.96
74573;BME280;63071;51.526;-0.134;2023-02-28T08:24:15;102936.44;;;21.82;25.23
74573;BME280;63071;51.526;-0.134;2023-02-28T08:26:40;102939.41;;;21.80;25.32
74573;BME280;63071;51.526;-0.134;2023-02-28T08:29:06;102931.13;;;21.82;25.41
74573;BME280;63071;51.526;-0.134;2023-02-28T08:31:31;102939.13;;;21.82;24.86
74573;BME280;63071;51.526;-0.134;2023-02-28T08:33:57;102937.03;;;21.79;25.58
74573;BME280;63071;51.526;-0.134;2023-02-28T08:36:25;102942.06;;;21.80;25.35
74573;BME280;63071;51.526;-0.134;2023-02-28T08:38:51;102939.41;;;21.80;25.02
74573;BME280;63071;51.526;-0.134;2023-02-28T08:41:17;102930.66;;;21.80;25.32
74573;BME280;63071;51.526;-0.134;2023-02-28T08:43:42;102932.97;;;21.81;25.68
74573;BME280;63071;51.526;-0.134;2023-02-28T08:46:11;102943.63;;;21.81;25.58
74573;BME280;63071;51.526;-0.134;2023-02-28T08:48:38;102935.97;;;21.80;25.51
74573;BME280;63071;51.526;-0.134;2023-02-28T08:51:11;102936.75;;;21.80;25.18
74573;BME280;63071;51.526;-0.134;2023-02-28T08:53:38;102940.97;;;21.81;25.29
74573;BME280;63071;51.526;-0.134;2023-02-28T08:56:13;102940.19;;;21.81;24.97
74573;BME280;63071;51.526;-0.134;2023-02-28T08:58:39;102932.97;;;21.81;24.94
74573;BME280;63071;51.526;-0.134;2023-02-28T09:01:17;102925.81;;;21.82;25.43
74573;BME280;63071;51.526;-0.134;2023-02-28T09:03:44;102925.81;;;21.82;25.68
74573;BME280;63071;51.526;-0.134;2023-02-28T09:06:11;102922.34;;;21.81;24.94
74573;BME280;63071;51.526;-0.134;2023-02-28T09:08:37;102924.22;;;21.81;25.01
74573;BME280;63071;51.526;-0.134;2023-02-28T09:11:03;102921.56;;;21.81;25.55
74573;BME280;63071;51.526;-0.134;2023-02-28T09:13:29;102910.91;;;21.81;25.67
74573;BME280;63071;51.526;-0.134;2023-02-28T09:15:58;102915.75;;;21.79;25.52
74573;BME280;63071;51.526;-0.134;2023-02-28T09:18:24;102912.78;;;21.80;25.58
74573;BME280;63071;51.526;-0.134;2023-02-28T09:20:49;102917.00;;;21.81;25.66
74573;BME280;63071;51.526;-0.134;2023-02-28T09:23:16;102918.59;;;21.83;25.32
74573;BME280;63071;51.526;-0.134;2023-02-28T09:25:50;102923.13;;;21.82;25.16
74573;BME280;63071;51.526;-0.134;2023-02-28T09:28:17;102921.56;;;21.81;25.06
74573;BME280;63071;51.526;-0.134;2023-02-28T09:30:45;102929.53;;;21.81;25.17
74573;BME280;63071;51.526;-0.134;2023-02-28T09:33:11;102923.44;;;21.80;24.94
74573;BME280;63071;51.526;-0.134;2023-02-28T09:35:37;102916.22;;;21.81;25.68
74573;BME280;63071;51.526;-0.134;2023-02-28T09:38:03;102916.06;;;21.77;25.69
74573;BME280;63071;51.526;-0.134;2023-02-28T09:40:29;102917.00;;;21.81;25.79
74573;BME280;63071;51.526;-0.134;2023-02-28T09:42:57;102915.16;;;21.82;25.76
74573;BME280;63071;51.526;-0.134;2023-02-28T09:45:39;102901.38;;;21.80;25.89
74573;BME280;63071;51.526;-0.134;2023-02-28T09:48:18;102901.03;;;21.81;25.63
74573;BME280;63071;51.526;-0.134;2023-02-28T09:51:04;102906.34;;;21.81;25.46
74573;BME280;63071;51.526;-0.134;2023-02-28T09:53:37;102902.63;;;21.83;25.75
74573;BME280;63071;51.526;-0.134;2023-02-28T09:56:09;102902.63;;;21.83;25.58
74573;BME280;63071;51.526;-0.134;2023-02-28T09:58:59;102893.53;;;21.84;25.21
74573;BME280;63071;51.526;-0.134;2023-02-28T10:01:39;102895.59;;;21.87;25.14
74573;BME280;63071;51.526;-0.134;2023-02-28T10:06:52;102900.78;;;21.92;25.07
74573;BME280;63071;51.526;-0.134;2023-02-28T10:09:32;102907.97;;;21.91;25.64
74573;BME280;63071;51.526;-0.134;2023-02-28T10:12:04;102909.84;;;21.91;25.87
74573;BME280;63071;51.526;-0.134;2023-02-28T10:14:33;102909.38;;;21.89;25.15
74573;BME280;63071;51.526;-0.134;2023-02-28T10:17:13;102911.72;;;21.90;25.81
74573;BME280;63071;51.526;-0.134;2023-02-28T10:20:05;102907.19;;;21.91;25.52
74573;BME280;63071;51.526;-0.134;2023-02-28T10:25:28;102904.22;;;21.92;25.53
74573;BME280;63071;51.526;-0.134;2023-02-28T10:28:20;102900.16;;;21.95;25.83
74573;BME280;63071;51.526;-0.134;2023-02-28T10:30:51;102891.38;;;21.94;25.29
74573;BME280;63071;51.526;-0.134;2023-02-28T10:33:27;102893.75;;;21.96;25.43
74573;BME280;63071;51.526;-0.134;2023-02-28T10:35:54;102893.75;;;21.96;25.21
74573;BME280;63071;51.526;-0.134;2023-02-28T10:38:23;102885.44;;;21.97;25.68
74573;BME280;63071;51.526;-0.134;2023-02-28T10:40:50;102895.78;;;21.99;25.25
74573;BME280;63071;51.526;-0.134;2023-02-28T10:43:18;102885.91;;;21.99;25.72
74573;BME280;63071;51.526;-0.134;2023-02-28T10:49:06;102885.91;;;21.99;25.84
74573;BME280;63071;51.526;-0.134;2023-02-28T10:51:39;102886.06;;;22.03;25.33
74573;BME280;63071;51.526;-0.134;2023-02-28T10:54:15;102891.88;;;22.05;25.97
74573;BME280;63071;51.526;-0.134;2023-02-28T10:56:42;102886.56;;;22.05;25.47
74573;BME280;63071;51.526;-0.134;2023-02-28T11:01:39;102872.63;;;22.08;25.86
74573;BME280;63071;51.526;-0.134;2023-02-28T11:04:35;102877.31;;;22.11;25.84
74573;BME280;63071;51.526;-0.134;2023-02-28T11:07:18;102878.91;;;22.12;25.59
74573;BME280;63071;51.526;-0.134;2023-02-28T11:09:52;102869.81;;;22.13;26.37
74573;BME280;63071;51.526;-0.134;2023-02-28T11:12:37;102865.72;;;22.16;25.63
74573;BME280;63071;51.526;-0.134;2023-02-28T11:17:56;102862.28;;;22.15;26.48
74573;BME280;63071;51.526;-0.134;2023-02-28T11:20:27;102852.41;;;22.16;26.23
74573;BME280;63071;51.526;-0.134;2023-02-28T11:22:56;102855.41;;;22.14;26.39
74573;BME280;63071;51.526;-0.134;2023-02-28T11:25:30;102848.66;;;22.17;25.73
74573;BME280;63071;51.526;-0.134;2023-02-28T11:28:00;102846.31;;;22.15;26.35
74573;BME280;63071;51.526;-0.134;2023-02-28T11:32:55;102820.63;;;22.19;26.83
74573;BME280;63071;51.526;-0.134;2023-02-28T11:35:35;102823.75;;;22.21;27.26
74573;BME280;63071;51.526;-0.134;2023-02-28T11:38:02;102788.81;;;22.23;26.63
74573;BME280;63071;51.526;-0.134;2023-02-28T11:49:11;102836.00;;;22.31;27.66
74573;BME280;63071;51.526;-0.134;2023-02-28T12:05:33;102820.19;;;22.44;26.83
74573;BME280;63071;51.526;-0.134;2023-02-28T12:11:06;102812.81;;;22.49;27.92
74573;BME280;63071;51.526;-0.134;2023-02-28T12:13:55;102808.91;;;22.47;28.14
74573;BME280;63071;51.526;-0.134;2023-02-28T12:22:21;102784.59;;;22.48;27.74
74573;BME280;63071;51.526;-0.134;2023-02-28T12:27:51;102782.38;;;22.50;27.68
74573;BME280;63071;51.526;-0.134;2023-02-28T12:30:32;102765.16;;;22.48;27.60
74573;BME280;63071;51.526;-0.134;2023-02-28T12:33:09;102757.94;;;22.48;28.20
74573;BME280;63071;51.526;-0.134;2023-02-28T12:35:44;102751.22;;;22.51;27.74
74573;BME280;63071;51.526;-0.134;2023-02-28T12:38:25;102737.56;;;22.52;27.96
74573;BME280;63071;51.526;-0.134;2023-02-28T12:43:30;102742.25;;;22.55;27.63
74573;BME280;63071;51.526;-0.134;2023-02-28T12:46:12;102744.16;;;22.55;27.36
74573;BME280;63071;51.526;-0.134;2023-02-28T12:48:46;102743.03;;;22.56;27.34
74573;BME280;63071;51.526;-0.134;2023-02-28T12:51:16;102748.69;;;22.54;27.39
74573;BME280;63071;51.526;-0.134;2023-02-28T12:59:19;102736.44;;;22.62;27.26
74573;BME280;63071;51.526;-0.134;2023-02-28T13:02:02;102726.56;;;22.63;27.58
74573;BME280;63071;51.526;-0.134;2023-02-28T13:08:01;102706.81;;;22.64;27.57
74573;BME280;63071;51.526;-0.134;2023-02-28T13:10:44;102703.69;;;22.62;27.28
74573;BME280;63071;51.526;-0.134;2023-02-28T13:13:16;102703.84;;;22.65;27.41
74573;BME280;63071;51.526;-0.134;2023-02-28T13:16:06;102697.38;;;22.66;27.07
74573;BME280;63071;51.526;-0.134;2023-02-28T13:21:07;102689.84;;;22.68;27.58
74573;BME280;63071;51.526;-0.134;2023-02-28T13:26:12;102681.09;;;22.68;27.04
74573;BME280;63071;51.526;-0.134;2023-02-28T13:28:57;102673.41;;;22.66;27.13
74573;BME280;63071;51.526;-0.134;2023-02-28T13:31:23;102679.03;;;22.65;27.27
74573;BME280;63071;51.526;-0.134;2023-02-28T13:36:29;102665.72;;;22.65;27.52
74573;BME280;63071;51.526;-0.134;2023-02-28T13:38:58;102666.50;;;22.65;27.44
74573;BME280;63071;51.526;-0.134;2023-02-28T13:49:33;102660.72;;;22.63;28.20
74573;BME280;63071;51.526;-0.134;2023-02-28T14:03:28;102665.88;;;22.68;27.80
74573;BME280;63071;51.526;-0.134;2023-02-28T14:09:15;102667.56;;;22.73;27.64
74573;BME280;63071;51.526;-0.134;2023-02-28T14:11:45;102661.31;;;22.69;27.91
74573;BME280;63071;51.526;-0.134;2023-02-28T14:17:14;102650.53;;;22.65;28.35
74573;BME280;63071;51.526;-0.134;2023-02-28T14:19:44;102646.88;;;22.70;28.38
74573;BME280;63071;51.526;-0.134;2023-02-28T14:25:31;102639.03;;;22.73;28.07
74573;BME280;63071;51.526;-0.134;2023-02-28T14:31:09;102623.38;;;22.72;28.43
74573;BME280;63071;51.526;-0.134;2023-02-28T14:36:27;102634.34;;;22.70;27.80
74573;BME280;63071;51.526;-0.134;2023-02-28T14:38:59;102640.59;;;22.74;28.38
74573;BME280;63071;51.526;-0.134;2023-02-28T14:43:58;102610.97;;;22.76;28.23
74573;BME280;63071;51.526;-0.134;2023-02-28T14:46:30;102620.03;;;22.75;27.77
74573;BME280;63071;51.526;-0.134;2023-02-28T14:48:59;102609.25;;;22.71;27.96
74573;BME280;63071;51.526;-0.134;2023-02-28T14:51:24;102603.13;;;22.71;27.89
74573;BME280;63071;51.526;-0.134;2023-02-28T14:53:57;102590.91;;;22.70;28.30
74573;BME280;63071;51.526;-0.134;2023-02-28T14:56:38;102596.31;;;22.61;28.02
74573;BME280;63071;51.526;-0.134;2023-02-28T14:59:05;102595.00;;;22.67;28.41
74573;BME280;63071;51.526;-0.134;2023-02-28T15:01:46;102601.13;;;22.68;27.68
74573;BME280;63071;51.526;-0.134;2023-02-28T15:04:22;102595.94;;;22.71;28.19
74573;BME280;63071;51.526;-0.134;2023-02-28T15:07:16;102589.78;;;22.71;28.16
74573;BME280;63071;51.526;-0.134;2023-02-28T15:09:42;102590.25;;;22.73;28.18
74573;BME280;63071;51.526;-0.134;2023-02-28T15:12:14;102593.38;;;22.75;28.20
74573;BME280;63071;51.526;-0.134;2023-02-28T15:14:43;102591.22;;;22.77;27.84